Detall de PIREP

Printer-friendly versionPDF version

[2012/04/17 08:35:00]
Flight IATA:CT1005
Pilot Number:011
Company ICAO:CAT
Aircraft Type:F28/A
PAX:85
Departing Airport: ESNZ
Destination Airport: EFVA
Alternate Airport:EFHK
Online: VATSIM
Route:ULTEX DCT LUE DCT EDAXA T89 NALIX
Flight Level:F230
No Slew and time accel
No pause
Crash detect
Detect pilot in Cockpit between each 30 and 45 minutes
08:35 Zero fuel Weight: 59656 Lbs, Fuel Weight: 9133 Lbs
08:35 VATSIM:ESNZ 170750Z 06008KT 9999 BKN028 M00/M07 Q1003
08:35 VATSIM:EFVA 170750Z AUTO 01011KT 9000 -SN FEW009/// BKN027/// OVC034/// 01/M00 Q1002 R16/0/0095
08:40 Parking Brakes off
08:49 Take-off
08:49 Take off Weight: 68341 Lbs
08:49 Wind: 053º @ 007 Knots Heading: 297º
08:49 POS N63º 11´ 45´´ E014º 29´ 35´´
08:49 Gear Up: 157 Knots
08:49 Flaps:2 at 157 Knots
08:51 Flaps:1 at 233 Knots
08:51 Flaps:0 at 236 Knots
09:00 TOC
09:00 Fuel Weight: 7227 Lb
09:04 Wind:031º@041 Knots Heading: 088º Ground Speed: 381 Knots Altitude 22719 ft
09:16 TOD
09:16 Fuel Weight: 5932 Lb
09:19 Wind:028º@035 Knots Heading: 091º Ground Speed: 352 Knots Altitude 16125 ft
09:30 Flaps:1 at 229 Knots
09:33 Flaps:2 at 197 Knots
09:34 Wind:006º@014 Knots Heading: 094º Ground Speed: 177 Knots Altitude 1683 ft
09:34 Flaps:3 at 178 Knots
09:34 Flaps:4 at 166 Knots
09:34 Gear Down: 162 Knots
09:37 Flaps:5 at 148 Knots
09:39 TouchDown:Rate -147 ft/min Speed: 117 Knots
09:39 Flaps:0 at 34 Knots
09:39 VATSIM:EFVA 170920Z AUTO 01011KT 6000 -SN FEW005/// SCT007/// OVC019/// 00/M00 Q1000 R16/0/0095
09:39 Land
09:39 Wind:005º@011 Knots
09:39 Heading: 160º
09:39 Flight Duration: 00:50
09:39 Landing Weight: 64484 Lbs
09:39 POS N63º 02´ 54´´ E021º 45´ 48´´
09:40 Parking brakes on
09:40 Block to Block Duration: 01:00
09:40 Final Fuel: 4761 Lbls
09:40 Spent Fuel: 4371 Lbls
09:40 Flight Length: 99 NM
09:40 TOD Land Length: 36 NM

Exportar CSV

Powered by Drupal - Modified by Danger4k